Time;durP1;ratioP1;P1;durP2;ratioP2;P2;SDS_P1;SDS_P2;PMS_P1;PMS_P2;Temp;Humidity;BMP_temperature;BMP_pressure;BME280_temperature;BME280_humidity;BME280_pressure;Samples;Min_cycle;Max_cycle;Signal;HPM_P1;HPM_P2
2023/07/17 00:00:10;;;;;;;6.75;3.80;;;;;;;16.58;100.00;101421.91;5210424;28;20036;-67
2023/07/17 00:02:42;;;;;;;7.43;3.92;;;;;;;16.46;100.00;101424.75;5202796;28;20018;-67
2023/07/17 00:05:14;;;;;;;7.03;4.20;;;;;;;16.63;100.00;101431.25;5202147;28;20096;-68
2023/07/17 00:07:45;;;;;;;8.15;3.53;;;;;;;16.50;100.00;101421.78;5190100;28;20105;-68
2023/07/17 00:10:16;;;;;;;6.97;3.95;;;;;;;16.46;100.00;101424.75;5190432;28;20034;-67
2023/07/17 00:12:48;;;;;;;7.28;3.53;;;;;;;16.39;100.00;101415.50;5193896;28;20465;-67
2023/07/17 00:15:19;;;;;;;6.85;3.72;;;;;;;16.39;100.00;101425.44;5195794;28;20037;-68
2023/07/17 00:17:51;;;;;;;7.40;3.60;;;;;;;16.35;100.00;101426.72;5191243;28;20034;-68
2023/07/17 00:20:23;;;;;;;7.68;3.75;;;;;;;16.34;100.00;101420.50;5188806;28;20057;-68
2023/07/17 00:22:54;;;;;;;7.20;3.95;;;;;;;16.25;100.00;101426.72;5192113;28;20053;-67
2023/07/17 00:25:26;;;;;;;9.10;4.13;;;;;;;16.31;100.00;101425.31;5193597;28;20113;-67
2023/07/17 00:27:57;;;;;;;8.95;4.38;;;;;;;16.20;100.00;101424.47;5192221;28;20026;-67
2023/07/17 00:30:28;;;;;;;7.90;3.80;;;;;;;16.24;100.00;101415.09;5191401;28;20040;-67
2023/07/17 00:33:00;;;;;;;7.20;3.65;;;;;;;16.19;100.00;101420.06;5186796;28;20026;-67
2023/07/17 00:35:31;;;;;;;10.07;4.72;;;;;;;16.24;100.00;101431.25;5192251;28;20475;-67
2023/07/17 00:38:03;;;;;;;6.90;3.65;;;;;;;16.22;100.00;101433.25;5191925;28;20034;-67
2023/07/17 00:40:41;;;;;;;9.93;4.22;;;;;;;16.23;100.00;101428.72;5186944;28;20037;-67
2023/07/17 00:43:12;;;;;;;7.88;3.92;;;;;;;16.07;100.00;101435.47;5195410;28;20057;-67
2023/07/17 00:45:45;;;;;;;10.60;3.97;;;;;;;16.09;100.00;101432.66;5194053;28;20066;-67
2023/07/17 00:48:17;;;;;;;7.70;3.90;;;;;;;16.06;100.00;101438.31;5193377;28;20417;-67
2023/07/17 00:50:51;;;;;;;7.28;4.15;;;;;;;16.01;100.00;101440.56;5191074;28;20054;-67
2023/07/17 00:53:22;;;;;;;11.00;4.40;;;;;;;15.92;100.00;101434.19;5190599;28;20114;-68
2023/07/17 00:55:54;;;;;;;6.90;3.75;;;;;;;15.90;100.00;101446.91;5190977;28;20385;-67
2023/07/17 00:58:25;;;;;;;7.03;3.80;;;;;;;16.08;100.00;101441.72;5198180;28;20209;-67
2023/07/17 01:00:57;;;;;;;7.10;3.88;;;;;;;15.88;100.00;101443.50;5193250;28;20604;-68
2023/07/17 01:03:29;;;;;;;8.48;3.50;;;;;;;15.82;100.00;101444.91;5195808;28;20356;-67
2023/07/17 01:06:01;;;;;;;7.57;4.03;;;;;;;15.86;100.00;101440.97;5197235;28;20153;-67
2023/07/17 01:08:32;;;;;;;8.65;3.75;;;;;;;15.80;100.00;101443.31;5192660;28;20046;-67
2023/07/17 01:11:04;;;;;;;6.38;3.53;;;;;;;15.78;100.00;101442.63;5190108;28;20108;-67
2023/07/17 01:13:46;;;;;;;6.75;3.60;;;;;;;15.78;100.00;101439.94;5194886;28;20026;-67
2023/07/17 01:16:18;;;;;;;6.93;3.50;;;;;;;15.78;100.00;101440.81;5192820;28;20034;-67
2023/07/17 01:18:49;;;;;;;8.02;3.50;;;;;;;15.72;100.00;101443.13;5192519;28;20432;-68
2023/07/17 01:21:25;;;;;;;7.35;3.72;;;;;;;15.67;100.00;101452.47;5191368;28;20030;-67
2023/07/17 01:23:57;;;;;;;8.63;3.65;;;;;;;15.68;100.00;101454.16;5195658;28;20527;-68
2023/07/17 01:26:29;;;;;;;7.10;3.33;;;;;;;15.61;100.00;101454.84;5194304;28;20026;-67
2023/07/17 01:29:00;;;;;;;7.97;3.60;;;;;;;15.64;100.00;101455.41;5190516;28;20042;-68
2023/07/17 01:31:32;;;;;;;7.03;3.92;;;;;;;15.59;100.00;101462.19;5193101;28;20037;-67
2023/07/17 01:34:04;;;;;;;8.50;3.78;;;;;;;15.57;100.00;101456.97;5193807;28;20458;-67
2023/07/17 01:36:35;;;;;;;9.13;4.50;;;;;;;15.63;100.00;101463.66;5197245;28;20432;-67
2023/07/17 01:39:07;;;;;;;7.47;3.88;;;;;;;15.52;100.00;101459.19;5189848;28;20029;-67
2023/07/17 01:41:38;;;;;;;7.53;3.70;;;;;;;15.60;100.00;101456.69;5192607;28;20041;-67
2023/07/17 01:44:09;;;;;;;8.55;3.97;;;;;;;15.54;100.00;101459.91;5203058;28;20026;-67
2023/07/17 01:46:41;;;;;;;7.75;3.65;;;;;;;15.46;100.00;101460.59;5196768;28;20373;-67
2023/07/17 01:49:12;;;;;;;7.15;4.15;;;;;;;15.48;100.00;101452.41;5190840;28;20030;-67
2023/07/17 01:51:43;;;;;;;7.00;3.80;;;;;;;15.51;100.00;101453.94;5194053;28;20038;-67
2023/07/17 01:54:15;;;;;;;8.27;3.95;;;;;;;15.49;100.00;101456.78;5194042;28;20030;-67
2023/07/17 01:56:46;;;;;;;10.88;3.85;;;;;;;15.60;100.00;101455.84;5193437;28;20788;-67
2023/07/17 01:59:18;;;;;;;8.80;4.20;;;;;;;15.59;100.00;101452.31;5192068;28;20030;-67
2023/07/17 02:01:49;;;;;;;8.73;4.05;;;;;;;15.56;100.00;101455.25;5193389;28;20483;-67
2023/07/17 02:04:20;;;;;;;6.85;3.92;;;;;;;15.46;100.00;101460.59;5190607;28;20377;-67
2023/07/17 02:06:52;;;;;;;8.27;4.43;;;;;;;15.51;100.00;101451.25;5197040;28;20112;-67
2023/07/17 02:09:23;;;;;;;8.30;4.05;;;;;;;15.46;100.00;101457.91;5185287;28;20872;-67
2023/07/17 02:11:54;;;;;;;7.32;3.80;;;;;;;15.27;100.00;101449.75;5189256;28;20306;-67
2023/07/17 02:14:26;;;;;;;7.60;4.13;;;;;;;15.37;100.00;101457.84;5193850;28;20030;-67
2023/07/17 02:16:58;;;;;;;8.45;3.83;;;;;;;15.37;100.00;101452.47;5192233;28;20038;-67
2023/07/17 02:19:29;;;;;;;8.27;4.15;;;;;;;15.35;100.00;101455.28;5197308;28;20120;-67
2023/07/17 02:22:01;;;;;;;7.68;3.53;;;;;;;15.38;100.00;101457.72;5194250;28;20026;-66
2023/07/17 02:24:32;;;;;;;6.65;3.80;;;;;;;15.32;100.00;101460.94;5193074;28;20029;-67
2023/07/17 02:27:04;;;;;;;6.32;4.00;;;;;;;15.31;100.00;101472.69;5191106;28;20057;-67
2023/07/17 02:29:35;;;;;;;9.43;4.13;;;;;;;15.23;100.00;101467.13;5192448;28;20398;-67
2023/07/17 02:32:07;;;;;;;8.50;3.83;;;;;;;15.22;100.00;101462.72;5193470;28;20062;-67
2023/07/17 02:34:38;;;;;;;8.63;4.35;;;;;;;15.14;100.00;101462.53;5192909;28;21491;-67
2023/07/17 02:37:10;;;;;;;7.55;3.88;;;;;;;15.18;100.00;101463.97;5191881;28;20097;-66
2023/07/17 02:39:42;;;;;;;7.28;3.50;;;;;;;15.12;100.00;101468.03;5190772;28;20473;-67
2023/07/17 02:42:13;;;;;;;8.80;3.75;;;;;;;15.09;100.00;101461.09;5195643;28;20040;-67
2023/07/17 02:44:46;;;;;;;6.22;3.63;;;;;;;15.06;100.00;101466.72;5197069;28;20030;-67
2023/07/17 02:47:17;;;;;;;9.30;3.70;;;;;;;15.11;100.00;101474.41;5192289;28;20032;-67
2023/07/17 02:49:49;;;;;;;9.40;4.18;;;;;;;15.14;100.00;101476.81;5188959;28;20034;-66
2023/07/17 02:52:20;;;;;;;7.93;3.20;;;;;;;15.04;100.00;101474.06;5191571;28;20033;-67
2023/07/17 02:54:52;;;;;;;9.20;3.70;;;;;;;15.07;100.00;101472.94;5191576;28;20114;-67
2023/07/17 02:57:23;;;;;;;6.90;3.67;;;;;;;15.05;100.00;101475.78;5193012;28;20092;-67
2023/07/17 02:59:54;;;;;;;6.40;4.03;;;;;;;15.06;100.00;101480.16;5191924;28;20428;-66
2023/07/17 03:02:25;;;;;;;7.90;3.72;;;;;;;14.93;100.00;101478.66;5191018;28;20018;-67
2023/07/17 03:04:57;;;;;;;9.50;3.83;;;;;;;14.86;100.00;101486.38;5192418;28;20053;-67
2023/07/17 03:07:28;;;;;;;9.45;4.07;;;;;;;14.80;100.00;101482.38;5188814;28;20041;-66
2023/07/17 03:10:00;;;;;;;7.63;3.88;;;;;;;14.76;100.00;101490.81;5188421;28;20700;-67
2023/07/17 03:12:31;;;;;;;8.02;3.53;;;;;;;14.80;100.00;101500.31;5186157;28;20034;-66
2023/07/17 03:15:04;;;;;;;7.68;3.55;;;;;;;14.81;100.00;101499.38;5190522;28;20447;-67
2023/07/17 03:17:35;;;;;;;10.40;3.72;;;;;;;14.76;100.00;101497.03;5190702;28;20037;-66
2023/07/17 03:20:10;;;;;;;10.10;3.90;;;;;;;14.92;100.00;101496.63;5192158;28;20477;-67
2023/07/17 03:22:41;;;;;;;7.50;3.55;;;;;;;14.79;100.00;101504.00;5192794;28;20105;-67
2023/07/17 03:25:13;;;;;;;7.80;3.78;;;;;;;14.86;100.00;101499.81;5192757;28;20029;-67
2023/07/17 03:27:44;;;;;;;8.88;3.72;;;;;;;14.73;100.00;101505.38;5192134;28;20034;-67
2023/07/17 03:30:15;;;;;;;9.73;3.72;;;;;;;14.82;100.00;101501.06;5188879;28;20161;-67
2023/07/17 03:32:47;;;;;;;8.95;3.40;;;;;;;14.66;100.00;101496.13;5191067;28;20129;-67
2023/07/17 03:35:18;;;;;;;12.10;4.03;;;;;;;14.73;100.00;101501.81;5191064;28;20504;-67
2023/07/17 03:37:50;;;;;;;8.57;3.33;;;;;;;14.71;100.00;101507.34;5196619;28;20034;-66
2023/07/17 03:40:21;;;;;;;7.88;3.20;;;;;;;14.74;100.00;101507.06;5193516;28;20526;-67
2023/07/17 03:42:53;;;;;;;9.07;3.80;;;;;;;14.75;100.00;101503.41;5197171;28;20034;-67
2023/07/17 03:45:24;;;;;;;7.82;3.33;;;;;;;14.62;100.00;101508.09;5198494;28;20017;-66
2023/07/17 03:47:56;;;;;;;8.63;3.58;;;;;;;14.70;100.00;101503.78;5196810;28;20026;-67
2023/07/17 03:50:28;;;;;;;9.90;3.70;;;;;;;14.62;100.00;101502.72;5189048;28;20030;-66
2023/07/17 03:52:59;;;;;;;11.10;4.05;;;;;;;14.55;100.00;101505.03;5191854;28;20030;-67
2023/07/17 03:55:31;;;;;;;6.68;3.50;;;;;;;14.55;100.00;101505.03;5187735;28;20076;-67
2023/07/17 03:58:03;;;;;;;10.70;3.92;;;;;;;14.62;100.00;101506.25;5195415;28;20389;-67
2023/07/17 04:00:34;;;;;;;8.88;4.10;;;;;;;14.69;100.00;101518.22;5202746;28;20372;-66
2023/07/17 04:03:06;;;;;;;8.98;3.78;;;;;;;14.59;100.00;101508.34;5204505;28;20026;-66
2023/07/17 04:05:37;;;;;;;10.70;3.90;;;;;;;14.50;100.00;101518.84;5194920;28;20040;-67
2023/07/17 04:08:09;;;;;;;8.95;3.53;;;;;;;14.46;100.00;101516.56;5200479;28;20050;-67
2023/07/17 04:10:40;;;;;;;11.77;4.38;;;;;;;14.44;100.00;101519.34;5204639;28;20108;-68
2023/07/17 04:13:13;;;;;;;7.43;3.50;;;;;;;14.51;100.00;101520.53;5208773;28;20046;-66
2023/07/17 04:15:44;;;;;;;8.57;3.67;;;;;;;14.49;100.00;101533.22;5202033;28;20316;-67
2023/07/17 04:18:16;;;;;;;9.82;3.80;;;;;;;14.46;100.00;101529.97;5202484;28;20081;-66
2023/07/17 04:20:47;;;;;;;12.50;3.92;;;;;;;14.40;100.00;101531.34;5195984;28;20034;-66
2023/07/17 04:23:18;;;;;;;8.95;3.97;;;;;;;14.40;100.00;101531.34;5204346;28;20026;-67
2023/07/17 04:25:50;;;;;;;11.88;4.13;;;;;;;14.34;100.00;101539.84;5204889;28;20029;-67
2023/07/17 04:28:22;;;;;;;7.78;4.03;;;;;;;14.52;100.00;101529.47;5197182;28;20030;-69
2023/07/17 04:30:53;;;;;;;7.97;4.40;;;;;;;14.38;100.00;101545.84;5199070;28;20037;-66
2023/07/17 04:33:26;;;;;;;9.88;4.63;;;;;;;14.50;100.00;101531.44;5198375;28;20451;-67
2023/07/17 04:35:57;;;;;;;10.48;4.35;;;;;;;14.44;100.00;101542.66;5196408;28;20053;-66
2023/07/17 04:38:28;;;;;;;10.07;4.00;;;;;;;14.43;100.00;101544.47;5199081;28;20034;-66
2023/07/17 04:41:00;;;;;;;8.55;4.22;;;;;;;14.40;100.00;101549.25;5199947;28;20053;-66
2023/07/17 04:43:31;;;;;;;10.95;4.28;;;;;;;14.42;100.00;101549.97;5197794;28;20369;-66
2023/07/17 04:46:03;;;;;;;11.13;4.60;;;;;;;14.46;100.00;101555.00;5200042;28;20036;-66
2023/07/17 04:48:34;;;;;;;9.45;4.40;;;;;;;14.42;100.00;101558.91;5199511;28;20022;-66
2023/07/17 04:51:06;;;;;;;11.43;4.63;;;;;;;14.46;100.00;101564.88;5195778;28;20089;-68
2023/07/17 04:53:38;;;;;;;12.48;4.68;;;;;;;14.44;100.00;101559.63;5200219;28;20031;-67
2023/07/17 04:56:09;;;;;;;12.30;4.88;;;;;;;14.45;100.00;101564.00;5202887;28;20096;-66
2023/07/17 04:58:40;;;;;;;11.13;4.90;;;;;;;14.47;100.00;101561.19;5198002;28;20037;-66
2023/07/17 05:01:12;;;;;;;12.52;4.90;;;;;;;14.50;100.00;101561.81;5200723;28;20126;-66
2023/07/17 05:03:43;;;;;;;12.48;4.78;;;;;;;14.43;100.00;101570.50;5202162;28;20026;-66
2023/07/17 05:06:14;;;;;;;10.52;4.65;;;;;;;14.59;100.00;101572.81;5195650;28;20030;-66
2023/07/17 05:08:46;;;;;;;9.82;4.53;;;;;;;14.56;100.00;101576.56;5199423;28;20374;-67
2023/07/17 05:11:17;;;;;;;10.15;5.13;;;;;;;14.59;100.00;101575.47;5198244;28;20056;-66
2023/07/17 05:13:49;;;;;;;14.48;4.80;;;;;;;14.59;100.00;101568.28;5202713;28;20026;-66
2023/07/17 05:16:20;;;;;;;8.63;4.40;;;;;;;14.57;100.00;101569.38;5199725;28;20066;-66
2023/07/17 05:18:52;;;;;;;11.63;4.90;;;;;;;14.63;100.00;101580.50;5208461;28;20548;-67
2023/07/17 05:21:23;;;;;;;10.82;4.60;;;;;;;14.69;100.00;101579.16;5197637;28;20526;-66
2023/07/17 05:23:54;;;;;;;11.15;4.93;;;;;;;14.74;100.00;101578.75;5205357;28;20022;-66
2023/07/17 05:26:26;;;;;;;8.73;4.55;;;;;;;14.71;100.00;101585.25;5200979;28;20085;-66
2023/07/17 05:28:57;;;;;;;10.43;4.63;;;;;;;14.73;100.00;101585.97;5205448;28;20040;-66
2023/07/17 05:31:29;;;;;;;11.88;4.80;;;;;;;14.70;100.00;101583.53;5203216;28;20544;-66
2023/07/17 05:34:01;;;;;;;10.77;4.90;;;;;;;14.77;100.00;101584.72;5189842;28;20396;-66
2023/07/17 05:36:32;;;;;;;12.50;5.53;;;;;;;14.82;100.00;101593.28;5193954;28;20153;-66
2023/07/17 05:39:04;;;;;;;10.32;4.90;;;;;;;14.87;100.00;101585.66;5198144;28;20061;-67
2023/07/17 05:41:35;;;;;;;9.63;4.82;;;;;;;14.97;100.00;101591.13;5197840;28;20026;-66
2023/07/17 05:44:06;;;;;;;10.90;5.10;;;;;;;15.05;100.00;101587.78;5197506;28;20494;-66
2023/07/17 05:46:38;;;;;;;11.73;5.50;;;;;;;15.04;100.00;101592.31;5199982;28;20121;-67
2023/07/17 05:49:09;;;;;;;10.88;4.57;;;;;;;15.04;100.00;101591.47;5199719;28;20026;-66
2023/07/17 05:51:41;;;;;;;9.73;4.45;;;;;;;15.10;100.00;101596.34;5202082;28;20046;-66
2023/07/17 05:54:12;;;;;;;10.00;5.32;;;;;;;15.17;100.00;101597.53;5205281;28;20042;-66
2023/07/17 05:56:43;;;;;;;11.15;4.95;;;;;;;15.16;100.00;101605.72;5211892;28;20038;-66
2023/07/17 05:59:15;;;;;;;12.18;5.05;;;;;;;15.24;100.00;101603.22;5208887;28;20053;-66
2023/07/17 06:01:46;;;;;;;10.82;4.82;;;;;;;15.20;100.00;101596.41;5201013;28;21028;-66
2023/07/17 06:04:18;;;;;;;13.02;4.88;;;;;;;15.20;100.00;101596.41;5200879;28;20354;-67
2023/07/17 06:06:49;;;;;;;14.57;5.95;;;;;;;15.27;100.00;101603.84;5201030;28;20484;-67
2023/07/17 06:09:21;;;;;;;12.73;5.20;;;;;;;15.29;100.00;101603.72;5188765;28;20042;-66
2023/07/17 06:11:52;;;;;;;12.55;4.95;;;;;;;15.29;100.00;101614.47;5199868;28;21201;-66
2023/07/17 06:14:23;;;;;;;10.48;5.25;;;;;;;15.39;100.00;101609.16;5196548;28;20112;-66
2023/07/17 06:16:55;;;;;;;11.43;5.78;;;;;;;15.41;100.00;101617.94;5205828;28;20034;-66
2023/07/17 06:19:26;;;;;;;10.82;5.22;;;;;;;15.37;100.00;101606.59;5199874;28;20021;-67
2023/07/17 06:21:57;;;;;;;15.27;5.20;;;;;;;15.55;100.00;101614.06;5210253;28;20022;-66
2023/07/17 06:24:29;;;;;;;10.85;5.50;;;;;;;15.55;100.00;101627.53;5206645;28;20030;-66
2023/07/17 06:27:00;;;;;;;14.77;5.53;;;;;;;15.54;100.00;101620.47;5201575;28;20058;-67
2023/07/17 06:29:31;;;;;;;13.48;5.15;;;;;;;15.63;100.00;101625.06;5204385;28;20032;-67
2023/07/17 06:32:03;;;;;;;14.93;5.47;;;;;;;15.69;100.00;101619.13;5204971;28;20065;-67
2023/07/17 06:34:34;;;;;;;12.88;4.95;;;;;;;15.68;100.00;101622.81;5203483;28;20073;-67
2023/07/17 06:37:07;;;;;;;11.35;5.15;;;;;;;15.76;100.00;101625.75;5200056;28;20113;-67
2023/07/17 06:39:38;;;;;;;13.45;4.97;;;;;;;15.92;100.00;101629.78;5206587;28;20099;-67
2023/07/17 06:42:10;;;;;;;14.73;5.20;;;;;;;15.93;100.00;101624.25;5206702;28;20021;-67
2023/07/17 06:44:41;;;;;;;11.85;5.35;;;;;;;15.97;100.00;101633.75;5201563;28;20026;-67
2023/07/17 06:47:13;;;;;;;10.60;5.20;;;;;;;16.11;100.00;101637.97;5207841;28;20441;-67
2023/07/17 06:49:44;;;;;;;11.30;5.10;;;;;;;16.08;100.00;101638.22;5202468;28;20037;-66
2023/07/17 06:52:15;;;;;;;12.70;5.57;;;;;;;16.20;100.00;101641.69;5205845;28;20092;-67
2023/07/17 06:54:47;;;;;;;13.18;5.30;;;;;;;16.26;100.00;101639.31;5211921;28;20068;-67
2023/07/17 06:57:20;;;;;;;10.40;5.35;;;;;;;16.38;100.00;101645.44;5206007;28;20034;-67
2023/07/17 06:59:51;;;;;;;13.10;4.88;;;;;;;16.44;100.00;101636.81;5199602;28;20172;-67
2023/07/17 07:02:22;;;;;;;10.52;5.43;;;;;;;16.49;100.00;101638.25;5204284;28;20034;-66
2023/07/17 07:04:54;;;;;;;12.82;4.95;;;;;;;16.60;100.00;101638.16;5194770;28;20030;-66
2023/07/17 07:07:25;;;;;;;10.35;5.18;;;;;;;16.63;100.00;101651.34;5192266;28;20030;-67
2023/07/17 07:09:56;;;;;;;10.90;5.43;;;;;;;16.73;100.00;101654.91;5193356;28;20026;-66
2023/07/17 07:12:28;;;;;;;12.95;4.45;;;;;;;16.90;100.00;101652.59;5193750;28;20062;-66
2023/07/17 07:14:59;;;;;;;10.98;4.85;;;;;;;16.93;100.00;101658.56;5194369;28;20672;-66
2023/07/17 07:17:31;;;;;;;11.35;5.38;;;;;;;17.04;100.00;101660.25;5200484;28;20038;-66
2023/07/17 07:20:03;;;;;;;10.30;4.78;;;;;;;17.16;100.00;101656.47;5200981;28;20026;-66
2023/07/17 07:22:34;;;;;;;11.40;5.35;;;;;;;17.16;100.00;101659.16;5207214;28;20060;-66
2023/07/17 07:25:06;;;;;;;11.85;4.70;;;;;;;17.23;100.00;101667.53;5204810;28;20388;-66
2023/07/17 07:27:37;;;;;;;12.13;3.88;;;;;;;17.34;100.00;101661.16;5209854;28;20248;-67
2023/07/17 07:30:09;;;;;;;11.07;4.60;;;;;;;17.45;100.00;101663.72;5206082;28;20496;-66
2023/07/17 07:32:41;;;;;;;11.30;4.30;;;;;;;17.49;100.00;101675.91;5210773;28;20500;-66
2023/07/17 07:35:13;;;;;;;10.55;4.15;;;;;;;17.61;100.00;101666.66;5199666;28;20033;-67
2023/07/17 07:37:44;;;;;;;11.20;4.63;;;;;;;17.53;100.00;101671.09;5191841;28;20143;-66
2023/07/17 07:40:16;;;;;;;9.75;4.75;;;;;;;17.55;100.00;101666.41;5195395;28;20492;-66
2023/07/17 07:42:47;;;;;;;8.18;3.83;;;;;;;17.58;100.00;101669.66;5200202;28;20034;-66
2023/07/17 07:45:21;;;;;;;11.25;4.65;;;;;;;17.70;100.00;101678.47;5197384;28;20064;-66
2023/07/17 07:47:52;;;;;;;13.02;5.07;;;;;;;17.77;100.00;101676.88;5193671;28;20057;-66
2023/07/17 07:50:23;;;;;;;11.82;4.47;;;;;;;17.95;100.00;101671.63;5195072;28;20556;-66
2023/07/17 07:52:55;;;;;;;10.30;4.97;;;;;;;17.95;100.00;101677.03;5202692;28;20034;-66
2023/07/17 07:55:26;;;;;;;9.02;4.53;;;;;;;18.05;100.00;101686.97;5199772;28;20026;-66
2023/07/17 07:57:58;;;;;;;10.35;3.97;;;;;;;18.13;100.00;101682.53;5210658;28;20024;-67
2023/07/17 08:00:29;;;;;;;13.07;4.10;;;;;;;18.16;100.00;101686.78;5202812;28;20473;-67
2023/07/17 08:03:00;;;;;;;11.60;4.88;;;;;;;18.13;100.00;101687.09;5212631;28;20014;-67
2023/07/17 08:05:32;;;;;;;11.25;4.65;;;;;;;18.29;100.00;101689.16;5206477;28;20038;-67
2023/07/17 08:08:04;;;;;;;9.27;4.07;;;;;;;18.32;100.00;101689.72;5198394;28;20088;-67
2023/07/17 08:10:37;;;;;;;10.95;4.50;;;;;;;18.37;100.00;101691.97;5214160;28;20507;-67
2023/07/17 08:13:09;;;;;;;8.82;4.07;;;;;;;18.42;100.00;101685.13;5211277;28;20036;-67
2023/07/17 08:15:40;;;;;;;11.07;4.50;;;;;;;18.52;100.00;101690.47;5204044;28;20088;-67
2023/07/17 08:18:11;;;;;;;12.68;4.72;;;;;;;18.62;100.00;101695.88;5207805;28;20116;-67
2023/07/17 08:20:43;;;;;;;9.48;4.35;;;;;;;18.61;100.00;101699.56;5205194;28;20107;-67
2023/07/17 08:23:24;;;;;;;9.10;4.60;;;;;;;18.69;100.00;101699.66;5206280;28;20026;-67
2023/07/17 08:25:55;;;;;;;8.98;4.05;;;;;;;18.58;100.00;101698.03;5202017;28;20061;-67
2023/07/17 08:28:26;;;;;;;8.38;3.97;;;;;;;18.63;100.00;101697.56;5204171;28;20081;-67
2023/07/17 08:30:58;;;;;;;11.13;4.35;;;;;;;18.73;100.00;101702.91;5202218;28;20088;-67
2023/07/17 08:33:29;;;;;;;9.55;4.38;;;;;;;18.78;100.00;101692.50;5204221;28;20503;-68
2023/07/17 08:36:00;;;;;;;7.65;4.05;;;;;;;18.77;100.00;101699.78;5205342;28;20351;-67
2023/07/17 08:38:32;;;;;;;11.32;4.50;;;;;;;18.78;100.00;101697.91;5209002;28;20169;-67
2023/07/17 08:41:03;;;;;;;9.65;4.55;;;;;;;18.69;100.00;101707.75;5205474;28;20033;-67
2023/07/17 08:43:36;;;;;;;11.85;4.30;;;;;;;18.66;100.00;101705.38;5196391;28;20171;-67
2023/07/17 08:46:09;;;;;;;9.20;4.07;;;;;;;18.73;100.00;101711.03;5204082;28;20412;-67
2023/07/17 08:48:43;;;;;;;9.20;3.97;;;;;;;18.76;100.00;101706.16;5198948;28;20031;-67
2023/07/17 08:51:15;;;;;;;9.05;3.90;;;;;;;18.82;100.00;101707.47;5196290;28;20041;-67
2023/07/17 08:53:51;;;;;;;12.27;3.97;;;;;;;18.91;100.00;101705.72;5211031;28;20041;-68
2023/07/17 08:56:23;;;;;;;8.80;3.83;;;;;;;19.13;100.00;101699.03;5210775;28;20037;-67
2023/07/17 08:58:56;;;;;;;10.38;3.95;;;;;;;19.11;100.00;101701.03;5206893;28;20483;-68
2023/07/17 09:01:27;;;;;;;6.90;3.47;;;;;;;19.26;100.00;101698.66;5203308;28;20033;-67
2023/07/17 09:03:59;;;;;;;10.23;3.78;;;;;;;19.39;100.00;101691.84;5195487;28;20034;-68
2023/07/17 09:06:30;;;;;;;9.07;4.03;;;;;;;19.54;100.00;101699.41;5194085;28;20026;-68
2023/07/17 09:09:03;;;;;;;9.10;3.17;;;;;;;19.63;100.00;101694.94;5200714;28;20049;-67
2023/07/17 09:11:34;;;;;;;9.00;3.17;;;;;;;19.77;100.00;101687.13;5193190;28;20026;-68
2023/07/17 09:14:07;;;;;;;13.50;4.13;;;;;;;19.87;100.00;101691.63;5206982;28;20034;-68
2023/07/17 09:16:40;;;;;;;9.13;3.10;;;;;;;20.07;100.00;101693.09;5211967;28;20782;-67
2023/07/17 09:19:13;;;;;;;6.93;3.05;;;;;;;20.23;100.00;101692.38;5203372;28;20594;-67
2023/07/17 09:21:44;;;;;;;6.80;3.00;;;;;;;20.35;100.00;101695.66;5204997;28;20045;-67
2023/07/17 09:24:21;;;;;;;7.03;3.10;;;;;;;20.38;100.00;101695.31;5205487;28;20476;-67
2023/07/17 09:26:57;;;;;;;7.35;3.33;;;;;;;20.41;100.00;101694.16;5210104;28;20030;-67
2023/07/17 09:29:29;;;;;;;8.02;3.53;;;;;;;20.36;100.00;101686.50;5209574;28;20092;-67
2023/07/17 09:32:27;;;;;;;5.65;2.75;;;;;;;20.46;100.00;101692.66;5204839;28;20037;-67
2023/07/17 09:35:04;;;;;;;6.03;3.10;;;;;;;20.37;100.00;101699.06;5201784;28;20054;-67
2023/07/17 09:37:36;;;;;;;8.68;3.05;;;;;;;20.31;100.00;101702.41;5211635;28;20029;-67
2023/07/17 09:40:11;;;;;;;6.45;2.80;;;;;;;20.33;100.00;101708.53;5203516;28;20068;-68
2023/07/17 09:42:44;;;;;;;8.40;3.38;;;;;;;20.40;100.00;101709.56;5206104;28;20499;-68
2023/07/17 09:45:18;;;;;;;10.00;3.27;;;;;;;20.47;100.00;101709.78;5206868;28;20264;-67
2023/07/17 09:47:50;;;;;;;7.57;2.85;;;;;;;20.43;100.00;101703.81;5210008;28;20374;-67
2023/07/17 09:50:23;;;;;;;7.68;3.38;;;;;;;20.46;100.00;101695.38;5212380;28;20112;-67
2023/07/17 09:52:55;;;;;;;6.03;2.65;;;;;;;20.69;100.00;101702.94;5212763;28;20509;-67
2023/07/17 09:55:29;;;;;;;7.90;2.80;;;;;;;20.84;100.00;101701.31;5214588;28;20025;-68
2023/07/17 09:58:04;;;;;;;5.78;2.75;;;;;;;20.98;100.00;101708.00;5205907;28;20022;-68
2023/07/17 10:00:39;;;;;;;7.45;2.75;;;;;;;20.86;100.00;101710.13;5205354;28;20034;-68
2023/07/17 10:03:13;;;;;;;6.10;2.70;;;;;;;20.84;100.00;101708.59;5211147;28;20030;-67
2023/07/17 10:05:46;;;;;;;10.63;3.25;;;;;;;20.90;100.00;101711.53;5205735;28;20034;-67
2023/07/17 10:08:17;;;;;;;6.43;2.38;;;;;;;20.97;100.00;101695.44;5205905;28;20104;-67
2023/07/17 10:10:49;;;;;;;5.70;2.58;;;;;;;21.05;100.00;101700.03;5207726;28;20029;-68
2023/07/17 10:13:21;;;;;;;7.93;3.08;;;;;;;21.10;100.00;101701.22;5214205;28;20091;-67
2023/07/17 10:15:52;;;;;;;6.40;2.85;;;;;;;21.12;100.00;101701.91;5207222;28;20487;-67
2023/07/17 10:18:24;;;;;;;7.47;2.70;;;;;;;21.25;100.00;101706.88;5204399;28;20037;-67
2023/07/17 10:20:56;;;;;;;7.43;2.83;;;;;;;21.38;100.00;101705.53;5203259;28;20531;-68
2023/07/17 10:23:29;;;;;;;8.60;3.20;;;;;;;21.33;100.00;101706.88;5199033;28;20389;-68
2023/07/17 10:26:08;;;;;;;7.57;3.30;;;;;;;21.41;100.00;101707.91;5207520;28;20025;-67
2023/07/17 10:28:41;;;;;;;7.82;2.92;;;;;;;21.45;100.00;101706.59;5206491;28;20080;-68
2023/07/17 10:31:23;;;;;;;7.00;3.22;;;;;;;21.38;100.00;101708.25;5199009;28;20034;-67
2023/07/17 10:33:59;;;;;;;7.63;3.05;;;;;;;21.14;100.00;101707.19;5212450;28;20542;-68
2023/07/17 10:36:40;;;;;;;9.82;3.10;;;;;;;21.07;100.00;101701.56;5199937;28;20117;-67
2023/07/17 10:39:16;;;;;;;7.18;2.70;;;;;;;20.95;100.00;101708.31;5208370;28;20140;-67
2023/07/17 10:41:51;;;;;;;6.22;2.90;;;;;;;21.09;100.00;101704.97;5211647;28;20026;-67
2023/07/17 10:44:22;;;;;;;8.88;3.58;;;;;;;21.19;100.00;101710.25;5204751;28;20507;-67
2023/07/17 10:46:53;;;;;;;7.00;3.30;;;;;;;21.29;100.00;101704.69;5203192;28;20030;-67
2023/07/17 10:49:25;;;;;;;5.70;3.17;;;;;;;21.53;100.00;101698.44;5210291;28;20029;-67
2023/07/17 10:51:56;;;;;;;8.60;3.47;;;;;;;21.59;100.00;101692.31;5215236;28;20084;-67
2023/07/17 10:54:27;;;;;;;6.85;3.42;;;;;;;21.87;100.00;101694.72;5204056;28;20451;-67
2023/07/17 10:56:59;;;;;;;6.90;3.20;;;;;;;21.97;100.00;101692.66;5211125;28;20053;-67
2023/07/17 10:59:30;;;;;;;7.05;3.25;;;;;;;22.00;100.00;101695.03;5207383;28;20477;-67
2023/07/17 11:02:02;;;;;;;5.57;2.90;;;;;;;22.01;100.00;101694.00;5206011;28;20022;-68
2023/07/17 11:04:34;;;;;;;6.40;3.17;;;;;;;21.85;100.00;101696.75;5198322;28;20025;-67
2023/07/17 11:07:09;;;;;;;6.13;3.00;;;;;;;21.74;100.00;101689.78;5205004;28;20270;-67
2023/07/17 11:09:44;;;;;;;5.70;2.63;;;;;;;21.78;100.00;101695.72;5208502;28;20065;-67
2023/07/17 11:12:18;;;;;;;6.15;3.00;;;;;;;21.90;100.00;101697.09;5203827;28;20116;-66
2023/07/17 11:14:52;;;;;;;8.57;3.10;;;;;;;21.89;100.00;101707.09;5198467;28;20037;-67
2023/07/17 11:17:24;;;;;;;7.50;3.53;;;;;;;21.76;100.00;101706.75;5214405;28;20040;-67
2023/07/17 11:20:05;;;;;;;7.85;3.65;;;;;;;21.74;100.00;101709.66;5199160;28;20041;-67
2023/07/17 11:22:42;;;;;;;5.13;3.03;;;;;;;21.71;100.00;101703.72;5201308;28;20028;-67
2023/07/17 11:25:13;;;;;;;4.78;3.13;;;;;;;21.77;100.00;101703.03;5197527;28;20104;-68
2023/07/17 11:27:46;;;;;;;7.60;3.58;;;;;;;21.85;100.00;101702.19;5199295;28;20058;-67
2023/07/17 11:30:28;;;;;;;7.18;3.72;;;;;;;21.91;100.00;101694.19;5209207;28;20531;-67
2023/07/17 11:33:06;;;;;;;6.63;3.40;;;;;;;21.91;100.00;101704.22;5196025;28;20035;-67
2023/07/17 11:35:49;;;;;;;7.32;3.60;;;;;;;21.80;100.00;101710.84;5200386;28;20053;-67